createdAt,value
2023-05-04T00:00:16.842Z,14.23
2023-05-04T00:02:45.166Z,14.54
2023-05-04T00:05:12.012Z,14.87
2023-05-04T00:07:46.104Z,14.39
2023-05-04T00:10:15.271Z,14.71
2023-05-04T00:12:42.751Z,14.46
2023-05-04T00:15:09.851Z,14.41
2023-05-04T00:17:48.441Z,14.44
2023-05-04T00:20:25.688Z,14.40
2023-05-04T00:22:57.317Z,14.41
2023-05-04T00:25:26.611Z,13.85
2023-05-04T00:27:53.458Z,14.64
2023-05-04T00:30:24.301Z,14.18
2023-05-04T00:32:52.447Z,14.10
2023-05-04T00:35:19.186Z,14.35
2023-05-04T00:37:54.914Z,14.21
2023-05-04T00:40:24.595Z,14.30
2023-05-04T00:42:59.975Z,14.37
2023-05-04T00:45:29.746Z,14.26
2023-05-04T00:48:06.023Z,14.26
2023-05-04T00:50:36.899Z,14.40
2023-05-04T00:53:11.152Z,14.21
2023-05-04T00:55:40.461Z,14.34
2023-05-04T00:58:07.449Z,14.53
2023-05-04T01:00:34.196Z,14.34
2023-05-04T01:03:02.332Z,14.53
2023-05-04T01:05:35.393Z,14.52
2023-05-04T01:08:07.911Z,14.93
2023-05-04T01:10:42.965Z,14.77
2023-05-04T01:13:13.949Z,14.55
2023-05-04T01:15:41.817Z,14.81
2023-05-04T01:18:10.214Z,14.65
2023-05-04T01:20:37.261Z,14.65
2023-05-04T01:23:46.397Z,14.68
2023-05-04T01:26:27.446Z,15.06
2023-05-04T01:29:01.154Z,14.63
2023-05-04T01:31:28.482Z,14.86
2023-05-04T01:33:56.518Z,14.81
2023-05-04T01:36:24.194Z,14.60
2023-05-04T01:38:55.837Z,14.73
2023-05-04T01:41:23.136Z,14.26
2023-05-04T01:43:50.149Z,14.68
2023-05-04T01:46:33.054Z,14.88
2023-05-04T01:49:00.802Z,14.62
2023-05-04T01:51:45.530Z,15.12
2023-05-04T01:54:47.423Z,14.68
2023-05-04T01:57:15.208Z,14.84
2023-05-04T02:03:30.630Z,15.00
2023-05-04T02:06:03.925Z,15.06
2023-05-04T02:08:30.722Z,15.22
2023-05-04T02:10:58.995Z,15.22
2023-05-04T02:13:25.743Z,15.33
2023-05-04T02:15:52.511Z,15.35
2023-05-04T02:18:19.366Z,15.45
2023-05-04T02:20:49.121Z,14.69
2023-05-04T02:23:21.895Z,15.26
2023-05-04T02:26:07.123Z,15.23
2023-05-04T02:28:45.678Z,15.07
2023-05-04T02:31:15.131Z,14.94
2023-05-04T02:33:51.560Z,15.27
2023-05-04T02:38:59.091Z,14.88
2023-05-04T02:41:33.798Z,15.04
2023-05-04T02:44:19.254Z,15.33
2023-05-04T02:46:47.659Z,14.91
2023-05-04T02:49:23.990Z,15.06
2023-05-04T02:52:02.318Z,14.62
2023-05-04T02:54:35.671Z,15.32
2023-05-04T02:57:07.420Z,14.84
2023-05-04T02:59:40.838Z,15.39
2023-05-04T03:02:31.770Z,15.63
2023-05-04T03:04:58.753Z,15.35
2023-05-04T03:07:27.960Z,15.23
2023-05-04T03:09:58.388Z,15.43
2023-05-04T03:12:26.758Z,15.29
2023-05-04T03:14:53.410Z,15.39
2023-05-04T03:17:23.637Z,15.59
2023-05-04T03:19:50.357Z,15.62
2023-05-04T03:22:17.314Z,14.84
2023-05-04T03:24:55.602Z,15.42
2023-05-04T03:27:22.318Z,15.11
2023-05-04T03:29:54.712Z,14.64
2023-05-04T03:32:21.734Z,14.99
2023-05-04T03:34:51.412Z,15.12
2023-05-04T03:37:29.294Z,14.70
2023-05-04T03:40:08.150Z,14.89
2023-05-04T03:42:36.843Z,14.75
2023-05-04T03:45:15.381Z,15.29
2023-05-04T03:47:43.093Z,15.16
2023-05-04T03:50:17.682Z,14.71
2023-05-04T03:52:45.870Z,15.02
2023-05-04T03:55:12.769Z,15.15
2023-05-04T03:57:40.614Z,15.47
2023-05-04T04:00:10.374Z,15.35
2023-05-04T04:02:37.107Z,14.92
2023-05-04T04:05:06.416Z,15.46
2023-05-04T04:07:33.202Z,15.54
2023-05-04T04:10:00.880Z,15.54
2023-05-04T04:12:31.895Z,15.29
2023-05-04T04:14:58.592Z,15.62
2023-05-04T04:17:28.245Z,15.55
2023-05-04T04:20:00.862Z,15.31
2023-05-04T04:22:27.810Z,15.13
2023-05-04T04:24:54.564Z,15.06
2023-05-04T04:27:22.586Z,15.40
2023-05-04T04:29:49.281Z,14.94
2023-05-04T04:32:16.021Z,14.79
2023-05-04T04:34:48.507Z,15.59
2023-05-04T04:37:15.123Z,15.59
2023-05-04T04:39:43.948Z,15.43
2023-05-04T04:42:11.753Z,15.39
2023-05-04T04:44:38.708Z,15.35
2023-05-04T04:47:15.518Z,15.74
2023-05-04T04:49:43.500Z,15.90
2023-05-04T04:52:12.637Z,15.50
2023-05-04T04:54:39.311Z,15.82
2023-05-04T04:57:05.964Z,15.88
2023-05-04T04:59:32.741Z,15.61
2023-05-04T05:02:01.840Z,15.69
2023-05-04T05:04:29.901Z,15.34
2023-05-04T05:06:57.264Z,15.27
2023-05-04T05:09:25.565Z,15.61
2023-05-04T05:11:52.549Z,15.50
2023-05-04T05:14:19.265Z,15.48
2023-05-04T05:16:46.983Z,15.49
2023-05-04T05:19:13.973Z,15.43
2023-05-04T05:21:41.864Z,15.42
2023-05-04T05:24:10.201Z,15.48
2023-05-04T05:26:38.500Z,15.64
2023-05-04T05:29:05.164Z,15.92
2023-05-04T05:31:31.976Z,16.00
2023-05-04T05:34:01.489Z,15.56
2023-05-04T05:36:29.367Z,16.01
2023-05-04T05:38:56.028Z,15.88
2023-05-04T05:41:22.727Z,15.87
2023-05-04T05:43:51.900Z,15.82
2023-05-04T05:46:18.654Z,15.98
2023-05-04T05:48:45.332Z,16.09
2023-05-04T05:51:12.970Z,15.96
2023-05-04T05:53:41.021Z,16.03
2023-05-04T05:56:07.725Z,16.22
2023-05-04T05:58:34.987Z,16.34
2023-05-04T06:01:03.097Z,16.10
2023-05-04T06:03:29.906Z,16.39
2023-05-04T06:05:56.684Z,16.56
2023-05-04T06:08:23.419Z,16.64
2023-05-04T06:10:50.108Z,16.82
2023-05-04T06:13:16.917Z,17.00
2023-05-04T06:15:51.039Z,17.26
2023-05-04T06:18:20.462Z,17.55
2023-05-04T06:20:47.219Z,17.43
2023-05-04T06:23:14.807Z,17.60
2023-05-04T06:25:41.841Z,17.93
2023-05-04T06:28:08.484Z,18.15
2023-05-04T06:30:35.146Z,18.24
2023-05-04T06:33:01.827Z,18.68
2023-05-04T06:35:29.878Z,18.97
2023-05-04T06:37:56.583Z,19.42
2023-05-04T06:40:23.220Z,19.01
2023-05-04T06:42:49.852Z,18.76
2023-05-04T06:45:16.689Z,18.73
2023-05-04T06:47:43.494Z,18.87
2023-05-04T06:50:11.303Z,18.60
2023-05-04T06:52:41.151Z,18.40
2023-05-04T06:55:08.374Z,18.55
2023-05-04T06:57:35.070Z,18.12
2023-05-04T07:00:02.073Z,17.83
2023-05-04T07:02:28.867Z,17.89
2023-05-04T07:04:55.624Z,17.48
2023-05-04T07:07:22.244Z,18.34
2023-05-04T07:09:50.240Z,18.30
2023-05-04T07:12:16.838Z,17.69
2023-05-04T07:14:43.542Z,17.78
2023-05-04T07:17:10.132Z,18.09
2023-05-04T07:19:36.782Z,18.87
2023-05-04T07:22:03.490Z,18.78
2023-05-04T07:24:30.410Z,18.87
2023-05-04T07:26:58.385Z,19.20
2023-05-04T07:29:25.111Z,19.12
2023-05-04T07:31:51.982Z,19.09
2023-05-04T07:36:45.709Z,19.68
2023-05-04T07:39:12.322Z,19.85
2023-05-04T07:41:38.972Z,20.61
2023-05-04T07:44:06.931Z,21.07
2023-05-04T07:46:33.855Z,21.36
2023-05-04T07:49:00.665Z,21.17
2023-05-04T07:51:27.273Z,20.47
2023-05-04T07:53:54.140Z,20.75
2023-05-04T07:56:20.868Z,20.52
2023-05-04T07:58:47.494Z,20.20
2023-05-04T08:01:15.484Z,20.29
2023-05-04T08:03:42.075Z,19.82
2023-05-04T08:06:08.674Z,19.84
2023-05-04T08:08:35.281Z,19.23
2023-05-04T08:11:15.821Z,19.97
2023-05-04T08:13:46.607Z,20.19
2023-05-04T08:16:13.212Z,19.84
2023-05-04T08:18:41.303Z,19.43
2023-05-04T08:21:07.995Z,19.56
2023-05-04T08:23:34.779Z,19.75
2023-05-04T08:26:01.528Z,20.61
2023-05-04T08:28:28.262Z,20.85
2023-05-04T08:30:54.929Z,20.97
2023-05-04T08:33:21.549Z,21.55
2023-05-04T08:35:49.653Z,21.90
2023-05-04T08:38:16.260Z,21.77
2023-05-04T08:40:43.049Z,21.83
2023-05-04T08:43:10.061Z,21.64
2023-05-04T08:45:38.434Z,20.33
2023-05-04T08:48:06.225Z,20.91
2023-05-04T08:50:33.516Z,21.04
2023-05-04T08:53:05.131Z,21.04
2023-05-04T08:55:33.818Z,21.24
2023-05-04T08:58:04.721Z,21.24
2023-05-04T09:00:32.893Z,21.79
2023-05-04T09:03:02.129Z,21.49
2023-05-04T09:05:30.126Z,22.12
2023-05-04T09:07:57.092Z,22.73
2023-05-04T09:10:27.426Z,23.50
2023-05-04T09:12:55.658Z,23.01
2023-05-04T09:15:23.133Z,22.20
2023-05-04T09:17:58.262Z,21.70
2023-05-04T09:20:25.854Z,20.58
2023-05-04T09:23:03.148Z,21.34
2023-05-04T09:25:31.254Z,21.39
2023-05-04T09:27:57.952Z,21.59
2023-05-04T09:30:24.866Z,21.81
2023-05-04T09:32:51.667Z,22.01
2023-05-04T09:35:33.200Z,22.04
2023-05-04T09:38:00.972Z,21.64
2023-05-04T09:40:33.178Z,21.65
2023-05-04T09:43:00.128Z,21.42
2023-05-04T09:45:27.391Z,21.35
2023-05-04T09:47:54.316Z,21.93
2023-05-04T09:50:22.617Z,21.58
2023-05-04T09:52:50.251Z,21.13
2023-05-04T09:55:18.460Z,21.85
2023-05-04T09:57:48.367Z,23.08
2023-05-04T10:00:17.152Z,22.13
2023-05-04T10:02:44.576Z,22.23
2023-05-04T10:05:15.051Z,22.02
2023-05-04T10:07:42.901Z,22.10
2023-05-04T10:10:11.534Z,22.25
2023-05-04T10:12:38.568Z,22.84
2023-05-04T10:15:09.099Z,22.62
2023-05-04T10:17:47.374Z,23.35
2023-05-04T10:20:31.769Z,23.27
2023-05-04T10:23:14.549Z,22.33
2023-05-04T10:26:06.432Z,22.20
2023-05-04T10:28:43.253Z,22.02
2023-05-04T10:31:11.446Z,22.31
2023-05-04T10:33:38.826Z,22.62
2023-05-04T10:36:06.676Z,22.91
2023-05-04T10:38:33.849Z,23.23
2023-05-04T10:41:01.036Z,22.68
2023-05-04T10:43:27.953Z,22.35
2023-05-04T10:45:55.237Z,22.46
2023-05-04T10:48:33.678Z,23.04
2023-05-04T10:51:00.355Z,23.29
2023-05-04T10:53:32.100Z,22.73
2023-05-04T10:55:58.966Z,22.86
2023-05-04T10:58:28.944Z,23.18
2023-05-04T11:00:55.709Z,23.49
2023-05-04T11:03:24.423Z,22.81
2023-05-04T11:05:53.002Z,23.15
2023-05-04T11:08:20.966Z,23.60
2023-05-04T11:10:48.467Z,24.07
2023-05-04T11:13:15.828Z,23.73
2023-05-04T11:15:46.917Z,23.58
2023-05-04T11:18:13.968Z,23.59
2023-05-04T11:20:42.399Z,23.40
2023-05-04T11:23:09.166Z,22.88
2023-05-04T11:25:36.410Z,23.09
2023-05-04T11:28:03.689Z,23.40
2023-05-04T11:30:31.500Z,22.94
2023-05-04T11:32:58.189Z,23.38
2023-05-04T11:35:25.048Z,24.16
2023-05-04T11:37:53.337Z,24.69
2023-05-04T11:40:21.725Z,25.04
2023-05-04T11:42:48.326Z,25.30
2023-05-04T11:45:17.830Z,25.02
2023-05-04T11:47:45.247Z,24.60
2023-05-04T11:50:13.693Z,23.85
2023-05-04T11:52:41.236Z,23.66
2023-05-04T11:55:10.778Z,24.12
2023-05-04T11:57:37.869Z,24.83
2023-05-04T12:00:06.032Z,23.92
2023-05-04T12:02:32.971Z,24.17
2023-05-04T12:04:59.676Z,25.28
2023-05-04T12:07:26.642Z,24.98
2023-05-04T12:09:53.355Z,24.78
2023-05-04T12:12:21.357Z,23.87
2023-05-04T12:14:49.142Z,23.91
2023-05-04T12:17:16.025Z,24.01
2023-05-04T12:19:53.212Z,23.54
2023-05-04T12:22:26.343Z,23.99
2023-05-04T12:24:53.005Z,23.93
2023-05-04T12:27:22.079Z,23.99
2023-05-04T12:29:48.717Z,24.78
2023-05-04T12:32:15.387Z,23.86
2023-05-04T12:34:41.977Z,23.22
2023-05-04T12:37:08.618Z,23.12
2023-05-04T12:39:35.443Z,23.29
2023-05-04T12:42:02.079Z,23.06
2023-05-04T12:44:31.922Z,22.75
2023-05-04T12:46:58.538Z,22.78
2023-05-04T12:49:25.551Z,23.19
2023-05-04T12:51:52.240Z,24.45
2023-05-04T12:54:18.956Z,24.76
2023-05-04T12:56:45.789Z,24.91
2023-05-04T12:59:12.489Z,24.46
2023-05-04T13:01:41.032Z,24.30
2023-05-04T13:04:08.058Z,23.13
2023-05-04T13:06:34.721Z,22.68
2023-05-04T13:09:01.469Z,22.94
2023-05-04T13:11:28.092Z,23.39
2023-05-04T13:13:54.824Z,23.63
2023-05-04T13:16:21.517Z,23.88
2023-05-04T13:18:52.422Z,24.14
2023-05-04T13:21:19.092Z,23.87
2023-05-04T13:23:45.696Z,24.04
2023-05-04T13:26:12.367Z,24.11
2023-05-04T13:28:39.375Z,24.51
2023-05-04T13:31:06.225Z,24.65
2023-05-04T13:33:33.002Z,24.96
2023-05-04T13:36:01.114Z,25.36
2023-05-04T13:38:28.041Z,25.06
2023-05-04T13:40:55.004Z,25.00
2023-05-04T13:43:22.077Z,25.14
2023-05-04T13:45:48.997Z,25.37
2023-05-04T13:48:16.511Z,24.44
2023-05-04T13:50:43.375Z,24.48
2023-05-04T13:53:11.683Z,24.68
2023-05-04T13:55:38.307Z,24.40
2023-05-04T13:58:07.324Z,24.17
2023-05-04T14:00:34.178Z,24.75
2023-05-04T14:03:00.850Z,24.72
2023-05-04T14:05:27.688Z,24.58
2023-05-04T14:07:54.268Z,24.80
2023-05-04T14:10:22.936Z,23.91
2023-05-04T14:12:49.606Z,23.77
2023-05-04T14:15:16.440Z,23.15
2023-05-04T14:17:43.503Z,23.50
2023-05-04T14:20:10.965Z,24.33
2023-05-04T14:22:38.308Z,24.44
2023-05-04T14:25:05.902Z,23.68
2023-05-04T14:27:34.197Z,22.79
2023-05-04T14:30:02.058Z,22.92
2023-05-04T14:32:28.841Z,22.99
2023-05-04T14:35:00.192Z,23.17
2023-05-04T14:37:26.818Z,23.55
2023-05-04T14:39:54.321Z,24.01
2023-05-04T14:42:20.921Z,23.81
2023-05-04T14:44:49.507Z,23.78
2023-05-04T14:47:16.361Z,24.74
2023-05-04T14:49:43.062Z,24.79
2023-05-04T14:52:10.026Z,23.93
2023-05-04T14:54:36.989Z,24.03
2023-05-04T14:57:03.795Z,23.89
2023-05-04T14:59:30.407Z,23.97
2023-05-04T15:01:58.343Z,24.49
2023-05-04T15:04:25.016Z,24.30
2023-05-04T15:06:51.652Z,24.49
2023-05-04T15:09:18.459Z,24.65
2023-05-04T15:11:45.073Z,25.29
2023-05-04T15:14:11.725Z,24.68
2023-05-04T15:16:38.454Z,25.01
2023-05-04T15:19:06.657Z,24.97
2023-05-04T15:21:33.406Z,25.11
2023-05-04T15:24:00.396Z,24.36
2023-05-04T15:26:27.064Z,24.31
2023-05-04T15:28:54.276Z,24.39
2023-05-04T15:31:21.151Z,24.36
2023-05-04T15:33:48.503Z,23.58
2023-05-04T15:36:16.474Z,23.75
2023-05-04T15:38:43.252Z,24.22
2023-05-04T15:41:09.969Z,24.58
2023-05-04T15:43:36.592Z,24.06
2023-05-04T15:46:03.292Z,23.76
2023-05-04T15:48:30.006Z,23.82
2023-05-04T15:50:56.631Z,23.84
2023-05-04T15:53:24.684Z,23.74
2023-05-04T15:55:51.315Z,23.72
2023-05-04T15:58:17.935Z,23.71
2023-05-04T16:00:44.580Z,23.44
2023-05-04T16:03:11.340Z,22.85
2023-05-04T16:05:38.108Z,23.29
2023-05-04T16:08:05.253Z,23.22
2023-05-04T16:10:33.731Z,23.25
2023-05-04T16:13:01.047Z,22.96
2023-05-04T16:15:27.710Z,22.73
2023-05-04T16:17:54.321Z,22.73
2023-05-04T16:20:21.063Z,23.24
2023-05-04T16:22:47.804Z,23.40
2023-05-04T16:25:14.515Z,23.48
2023-05-04T16:27:42.614Z,22.42
2023-05-04T16:30:10.333Z,23.10
2023-05-04T16:32:37.286Z,23.13
2023-05-04T16:35:04.480Z,21.91
2023-05-04T16:37:31.064Z,22.28
2023-05-04T16:39:57.719Z,21.82
2023-05-04T16:42:24.299Z,21.26
2023-05-04T16:44:52.282Z,21.66
2023-05-04T16:47:18.966Z,22.03
2023-05-04T16:49:45.642Z,22.33
2023-05-04T16:52:12.371Z,22.88
2023-05-04T16:54:39.008Z,22.36
2023-05-04T16:57:05.624Z,22.68
2023-05-04T16:59:32.263Z,22.56
2023-05-04T17:02:00.384Z,21.98
2023-05-04T17:04:27.020Z,22.41
2023-05-04T17:06:53.603Z,22.51
2023-05-04T17:09:20.466Z,22.55
2023-05-04T17:11:47.233Z,21.98
2023-05-04T17:14:14.053Z,22.01
2023-05-04T17:16:40.769Z,21.98
2023-05-04T17:19:10.934Z,21.79
2023-05-04T17:21:37.954Z,21.73
2023-05-04T17:24:05.318Z,21.62
2023-05-04T17:26:31.929Z,21.88
2023-05-04T17:28:58.575Z,21.34
2023-05-04T17:31:25.262Z,21.16
2023-05-04T17:33:52.000Z,21.33
2023-05-04T17:36:20.043Z,21.18
2023-05-04T17:38:46.846Z,20.65
2023-05-04T17:41:13.745Z,20.57
2023-05-04T17:43:40.434Z,20.57
2023-05-04T17:46:07.404Z,20.88
2023-05-04T17:48:34.316Z,20.48
2023-05-04T17:51:00.990Z,20.90
2023-05-04T17:53:29.486Z,19.99
2023-05-04T17:55:56.512Z,19.89
2023-05-04T17:58:23.636Z,20.71
2023-05-04T18:00:52.763Z,20.14
2023-05-04T18:03:20.195Z,19.89
2023-05-04T18:05:46.977Z,19.38
2023-05-04T18:08:14.132Z,19.09
2023-05-04T18:10:42.184Z,19.85
2023-05-04T18:13:08.901Z,19.96
2023-05-04T18:15:35.566Z,19.35
2023-05-04T18:18:03.341Z,19.70
2023-05-04T18:20:30.271Z,20.13
2023-05-04T18:22:56.922Z,19.56
2023-05-04T18:25:23.883Z,20.00
2023-05-04T18:27:51.841Z,20.54
2023-05-04T18:30:18.601Z,20.49
2023-05-04T18:32:45.924Z,19.45
2023-05-04T18:35:12.581Z,19.66
2023-05-04T18:37:39.680Z,20.02
2023-05-04T18:40:07.836Z,19.88
2023-05-04T18:42:34.590Z,19.89
2023-05-04T18:45:02.967Z,19.78
2023-05-04T18:47:30.432Z,19.27
2023-05-04T18:49:57.404Z,19.71
2023-05-04T18:52:24.116Z,19.76
2023-05-04T18:54:50.804Z,19.77
2023-05-04T18:57:17.720Z,19.45
2023-05-04T18:59:44.535Z,19.50
2023-05-04T19:02:12.722Z,19.79
2023-05-04T19:04:39.553Z,19.22
2023-05-04T19:07:06.278Z,19.43
2023-05-04T19:09:33.012Z,18.64
2023-05-04T19:11:59.759Z,18.94
2023-05-04T19:14:27.279Z,19.22
2023-05-04T19:16:54.824Z,18.35
2023-05-04T19:19:22.897Z,18.44
2023-05-04T19:21:49.949Z,18.47
2023-05-04T19:24:16.649Z,18.67
2023-05-04T19:26:43.404Z,18.41
2023-05-04T19:29:10.141Z,18.55
2023-05-04T19:31:36.926Z,18.60
2023-05-04T19:34:03.757Z,19.03
2023-05-04T19:36:31.800Z,18.68
2023-05-04T19:38:58.506Z,18.62
2023-05-04T19:41:25.149Z,18.12
2023-05-04T19:43:51.860Z,18.57
2023-05-04T19:46:18.644Z,18.54
2023-05-04T19:48:45.288Z,18.51
2023-05-04T19:51:12.202Z,18.80
2023-05-04T19:53:40.403Z,18.76
2023-05-04T19:56:07.018Z,18.57
2023-05-04T19:58:33.747Z,18.40
2023-05-04T20:01:00.406Z,18.63
2023-05-04T20:03:27.173Z,18.80
2023-05-04T20:05:53.895Z,18.62
2023-05-04T20:08:20.507Z,18.82
2023-05-04T20:10:48.589Z,18.84
2023-05-04T20:13:15.363Z,18.84
2023-05-04T20:15:42.023Z,18.61
2023-05-04T20:18:08.685Z,18.55
2023-05-04T20:20:35.387Z,19.05
2023-05-04T20:23:02.050Z,18.90
2023-05-04T20:25:28.721Z,19.20
2023-05-04T20:27:56.790Z,18.40
2023-05-04T20:30:23.427Z,18.92
2023-05-04T20:32:50.293Z,18.11
2023-05-04T20:35:17.116Z,18.04
2023-05-04T20:37:43.773Z,18.43
2023-05-04T20:40:11.270Z,19.02
2023-05-04T20:42:38.239Z,18.35
2023-05-04T20:45:07.765Z,19.05
2023-05-04T20:47:34.762Z,18.84
2023-05-04T20:50:01.547Z,19.05
2023-05-04T20:52:28.313Z,18.43
2023-05-04T20:54:55.303Z,18.46
2023-05-04T20:57:22.159Z,18.76
2023-05-04T20:59:48.736Z,18.45
2023-05-04T21:02:18.084Z,18.98
2023-05-04T21:04:47.098Z,18.92
2023-05-04T21:07:13.778Z,19.09
2023-05-04T21:12:12.074Z,18.78
2023-05-04T21:14:39.299Z,18.77
2023-05-04T21:17:09.626Z,18.83
2023-05-04T21:19:38.267Z,18.55
2023-05-04T21:24:34.292Z,19.41
2023-05-04T21:27:01.175Z,19.53
2023-05-04T21:29:28.936Z,18.92
2023-05-04T21:31:56.429Z,19.15
2023-05-04T21:34:23.880Z,18.50
2023-05-04T21:36:52.051Z,18.18
2023-05-04T21:39:19.490Z,17.77
2023-05-04T21:41:46.984Z,17.48
2023-05-04T21:44:14.240Z,17.93
2023-05-04T21:46:41.619Z,17.79
2023-05-04T21:49:09.050Z,17.72
2023-05-04T21:51:36.397Z,18.15
2023-05-04T21:54:05.252Z,17.46
2023-05-04T21:56:32.495Z,17.95
2023-05-04T21:59:00.756Z,18.22
2023-05-04T22:01:28.167Z,18.08
2023-05-04T22:03:55.505Z,18.51
2023-05-04T22:06:22.972Z,18.42
2023-05-04T22:08:50.595Z,18.36
2023-05-04T22:11:19.682Z,18.82
2023-05-04T22:13:47.082Z,18.82
2023-05-04T22:16:14.535Z,18.90
2023-05-04T22:18:42.109Z,19.18
2023-05-04T22:21:09.499Z,18.86
2023-05-04T22:23:36.715Z,19.19
2023-05-04T22:26:04.028Z,19.13
2023-05-04T22:28:32.786Z,19.33
2023-05-04T22:31:00.478Z,19.22
2023-05-04T22:33:27.984Z,18.87
2023-05-04T22:35:54.706Z,19.12
2023-05-04T22:38:21.875Z,19.10
2023-05-04T22:40:50.178Z,19.19
2023-05-04T22:43:17.748Z,19.25
2023-05-04T22:45:46.477Z,19.12
2023-05-04T22:48:14.210Z,19.16
2023-05-04T22:50:41.785Z,19.27
2023-05-04T22:53:09.080Z,19.51
2023-05-04T22:55:36.518Z,19.57
2023-05-04T22:58:03.977Z,19.54
2023-05-04T23:00:31.247Z,19.87
2023-05-04T23:03:00.616Z,19.94
2023-05-04T23:05:28.117Z,19.94
2023-05-04T23:07:55.520Z,19.77
2023-05-04T23:10:23.147Z,19.84
2023-05-04T23:12:50.445Z,19.62
2023-05-04T23:15:20.461Z,19.80
2023-05-04T23:17:47.633Z,19.78
2023-05-04T23:20:16.458Z,19.84
2023-05-04T23:22:43.819Z,19.98
2023-05-04T23:25:11.222Z,20.00
2023-05-04T23:27:38.400Z,19.80
2023-05-04T23:30:08.008Z,19.66
2023-05-04T23:32:35.616Z,19.60
2023-05-04T23:35:02.334Z,19.51
2023-05-04T23:37:32.007Z,19.56
2023-05-04T23:39:59.164Z,19.76
2023-05-04T23:42:26.640Z,19.54
2023-05-04T23:44:55.410Z,19.71
2023-05-04T23:47:22.780Z,19.61
2023-05-04T23:49:50.452Z,19.73
2023-05-04T23:52:17.934Z,19.81
2023-05-04T23:54:47.177Z,19.92
2023-05-04T23:57:14.251Z,20.01
2023-05-04T23:59:41.750Z,20.08
